Time;durP1;ratioP1;P1;durP2;ratioP2;P2;SDS_P1;SDS_P2;PMS_P1;PMS_P2;Temp;Humidity;BMP_temperature;BMP_pressure;BME280_temperature;BME280_humidity;BME280_pressure;Samples;Min_cycle;Max_cycle;Signal;HPM_P1;HPM_P2
2021/12/25 00:01:10;;;;;;;22.00;18.90;;;;;;;-0.03;89.44;96607.09;106241;1323;22391;-60
2021/12/25 00:03:38;;;;;;;18.80;15.50;;;;;;;-0.04;89.38;96612.23;106265;1322;22728;-61
2021/12/25 00:06:07;;;;;;;16.10;14.40;;;;;;;-0.05;89.45;96607.20;106256;1324;23181;-60
2021/12/25 00:08:35;;;;;;;19.80;17.90;;;;;;;-0.02;89.52;96607.67;106249;1323;22312;-60
2021/12/25 00:11:07;;;;;;;26.20;23.50;;;;;;;0.00;89.51;96608.00;106271;1323;22480;-60
2021/12/25 00:13:35;;;;;;;37.80;34.00;;;;;;;0.01;89.58;96621.45;106251;1323;22461;-60
2021/12/25 00:16:04;;;;;;;21.10;18.90;;;;;;;-0.00;89.62;96619.91;106159;1323;138237;-60
2021/12/25 00:18:38;;;;;;;20.40;18.10;;;;;;;0.00;89.60;96613.83;106178;1323;22529;-61
2021/12/25 00:21:08;;;;;;;19.80;17.80;;;;;;;0.01;89.42;96620.87;106265;1323;23628;-61
2021/12/25 00:23:37;;;;;;;18.20;16.40;;;;;;;0.03;89.47;96629.08;106325;1320;22292;-61
2021/12/25 00:26:25;;;;;;;17.60;15.90;;;;;;;0.01;89.28;96630.77;106265;1323;23218;-61
2021/12/25 00:29:03;;;;;;;19.20;17.30;;;;;;;0.02;89.44;96637.71;106247;1323;22630;-61
2021/12/25 00:32:10;;;;;;;19.70;17.60;;;;;;;-0.03;89.29;96652.27;106174;1323;22450;-59
2021/12/25 00:34:23;;;;;;;20.80;18.60;;;;;;;-0.02;89.38;96655.30;106299;1323;22473;-62
2021/12/25 00:36:54;;;;;;;21.20;19.00;;;;;;;0.02;89.25;96653.23;106263;1323;22424;-61
2021/12/25 00:39:22;;;;;;;16.90;15.10;;;;;;;0.07;89.15;96659.13;106168;1323;22512;-62
2021/12/25 00:41:51;;;;;;;19.90;17.80;;;;;;;0.06;89.59;96668.17;106302;1323;22384;-61
2021/12/25 00:44:19;;;;;;;17.70;15.80;;;;;;;0.04;89.40;96666.64;106278;1323;22513;-61
2021/12/25 00:46:47;;;;;;;19.20;16.40;;;;;;;0.01;89.50;96668.91;106260;1323;22381;-60
2021/12/25 00:49:15;;;;;;;16.20;14.50;;;;;;;-0.00;89.33;96673.20;106258;1323;22319;-62
2021/12/25 00:51:43;;;;;;;16.30;14.70;;;;;;;-0.01;89.28;96676.15;106291;1323;22471;-60
2021/12/25 00:54:12;;;;;;;18.40;16.50;;;;;;;0.02;89.40;96688.98;106261;1323;22299;-60
2021/12/25 00:56:42;;;;;;;17.10;15.40;;;;;;;0.01;89.48;96701.00;106212;1323;23116;-61
2021/12/25 00:59:10;;;;;;;17.30;15.60;;;;;;;-0.02;89.39;96702.70;106266;1323;22496;-62
2021/12/25 01:01:38;;;;;;;15.90;14.40;;;;;;;-0.05;89.42;96708.14;106213;1323;23128;-61
2021/12/25 01:04:07;;;;;;;16.10;14.40;;;;;;;-0.06;89.60;96719.36;106187;1323;22375;-60
2021/12/25 01:06:35;;;;;;;14.50;13.10;;;;;;;-0.07;89.61;96730.27;106224;1323;22479;-60
2021/12/25 01:09:07;;;;;;;15.00;13.60;;;;;;;-0.08;89.53;96733.27;106223;1323;22389;-61
2021/12/25 01:11:37;;;;;;;15.10;13.60;;;;;;;-0.14;89.63;96731.19;105997;1326;22594;-60
2021/12/25 01:20:14;;;;;;;13.70;12.30;;;;;;;-0.21;90.04;96731.58;106184;1324;22588;-61
2021/12/25 01:50:11;;;;;;;13.50;12.20;;;;;;;-0.32;89.92;96747.26;106025;1321;246378;-61
2021/12/25 01:52:40;;;;;;;12.50;11.40;;;;;;;-0.35;89.90;96753.65;106234;1323;22478;-61
2021/12/25 01:55:12;;;;;;;13.80;12.50;;;;;;;-0.33;89.94;96761.69;106253;1323;23185;-63
2021/12/25 01:57:41;;;;;;;13.00;11.80;;;;;;;-0.34;90.01;96763.29;106248;1323;22664;-62
2021/12/25 02:00:23;;;;;;;13.20;11.90;;;;;;;-0.35;89.82;96761.27;106207;1323;22477;-64
2021/12/25 02:02:51;;;;;;;12.90;11.70;;;;;;;-0.33;89.98;96770.86;106220;1324;22502;-64
2021/12/25 02:05:20;;;;;;;15.60;14.10;;;;;;;-0.33;90.08;96766.67;106244;1324;22360;-64
2021/12/25 02:07:49;;;;;;;14.70;13.30;;;;;;;-0.36;90.00;96759.94;105982;1326;22717;-63
2021/12/25 02:10:18;;;;;;;14.30;12.80;;;;;;;-0.38;89.68;96761.19;106232;1324;23173;-64
2021/12/25 02:12:48;;;;;;;11.50;10.40;;;;;;;-0.41;89.92;96778.42;106211;1324;23131;-65
2021/12/25 02:15:36;;;;;;;11.60;10.60;;;;;;;-0.44;89.98;96770.52;106211;1324;22467;-63
2021/12/25 02:18:25;;;;;;;11.50;10.40;;;;;;;-0.48;90.00;96772.73;106283;1323;22472;-62
2021/12/25 02:21:12;;;;;;;11.50;10.40;;;;;;;-0.54;89.87;96789.25;106205;1323;22420;-62
2021/12/25 02:23:40;;;;;;;11.70;10.50;;;;;;;-0.55;89.91;96790.31;106287;1323;22330;-62
2021/12/25 02:26:09;;;;;;;12.20;11.00;;;;;;;-0.54;90.01;96794.08;106189;1324;22372;-62
2021/12/25 02:28:37;;;;;;;11.90;10.80;;;;;;;-0.54;90.17;96800.30;106175;1324;22513;-61
2021/12/25 02:31:11;;;;;;;12.30;11.20;;;;;;;-0.55;90.03;96794.11;106222;1324;22484;-61
2021/12/25 02:33:40;;;;;;;11.20;10.10;;;;;;;-0.62;89.94;96799.09;106267;1323;23046;-62
2021/12/25 02:36:11;;;;;;;9.50;8.60;;;;;;;-0.64;90.01;96802.88;106218;1323;22929;-61
2021/12/25 02:38:40;;;;;;;10.90;9.90;;;;;;;-0.68;89.92;96804.50;106203;1324;22573;-61
2021/12/25 02:41:09;;;;;;;10.90;9.80;;;;;;;-0.77;90.03;96804.59;106260;1324;23276;-61
2021/12/25 02:43:38;;;;;;;10.80;9.80;;;;;;;-0.84;90.08;96812.35;106225;1324;22573;-62
2021/12/25 02:46:07;;;;;;;10.20;9.20;;;;;;;-0.89;90.16;96824.16;106050;1323;23231;-62
2021/12/25 02:48:40;;;;;;;11.70;10.70;;;;;;;-0.90;90.07;96833.41;106288;1322;22547;-62
2021/12/25 02:51:11;;;;;;;12.00;10.90;;;;;;;-0.96;90.22;96836.42;106261;1323;22477;-61
2021/12/25 02:53:40;;;;;;;11.50;10.40;;;;;;;-0.99;90.40;96840.67;106256;1323;23040;-61
2021/12/25 02:56:09;;;;;;;11.70;10.60;;;;;;;-1.05;90.33;96842.42;106273;1323;22570;-61
2021/12/25 02:58:38;;;;;;;10.30;9.40;;;;;;;-1.07;90.52;96841.14;106228;1323;22491;-61
2021/12/25 03:01:13;;;;;;;10.70;9.70;;;;;;;-1.04;90.37;96851.73;106222;1323;22578;-62
2021/12/25 03:03:43;;;;;;;11.70;10.60;;;;;;;-1.04;90.29;96850.99;106217;1324;22548;-63
2021/12/25 03:06:13;;;;;;;12.60;11.50;;;;;;;-1.04;90.39;96849.20;106202;1323;22528;-63
2021/12/25 03:08:43;;;;;;;12.40;11.20;;;;;;;-1.03;90.35;96852.50;105958;1326;22457;-63
2021/12/25 03:11:15;;;;;;;11.70;10.60;;;;;;;-1.02;90.33;96852.17;106265;1323;23265;-61
2021/12/25 03:13:57;;;;;;;11.70;10.60;;;;;;;-0.99;90.17;96848.66;106273;1323;22465;-62
2021/12/25 03:16:27;;;;;;;12.40;11.30;;;;;;;-0.98;90.06;96851.16;106276;1323;22571;-62
2021/12/25 03:18:59;;;;;;;13.90;12.50;;;;;;;-0.98;90.08;96851.58;106226;1324;22481;-60
2021/12/25 03:21:27;;;;;;;13.40;12.10;;;;;;;-0.98;90.20;96854.65;106273;1323;22581;-61
2021/12/25 03:23:55;;;;;;;12.30;11.20;;;;;;;-0.98;90.03;96854.96;106301;1323;22425;-60
2021/12/25 03:26:24;;;;;;;12.00;10.90;;;;;;;-0.98;90.09;96867.81;106286;1323;23023;-60
2021/12/25 03:28:53;;;;;;;14.40;12.70;;;;;;;-0.99;90.19;96865.70;106225;1324;23252;-60
2021/12/25 03:31:22;;;;;;;13.80;12.50;;;;;;;-0.99;90.17;96869.45;106318;1323;23255;-60
2021/12/25 03:33:54;;;;;;;14.40;12.90;;;;;;;-1.04;90.08;96875.31;106255;1323;22534;-60
2021/12/25 03:36:22;;;;;;;13.50;12.30;;;;;;;-1.11;90.35;96873.02;106296;1323;22612;-60
2021/12/25 03:38:51;;;;;;;13.30;12.10;;;;;;;-1.19;90.21;96879.77;106258;1323;22554;-59
2021/12/25 03:41:19;;;;;;;12.80;11.70;;;;;;;-1.25;90.05;96886.45;106201;1323;22391;-59
2021/12/25 03:43:48;;;;;;;10.80;9.80;;;;;;;-1.33;89.97;96892.02;106253;1323;22275;-60
2021/12/25 03:46:17;;;;;;;9.90;9.00;;;;;;;-1.45;89.69;96896.38;106291;1323;23708;-60
2021/12/25 03:59:18;;;;;;;10.10;9.20;;;;;;;-1.95;89.15;96927.80;106262;1321;22621;-59
2021/12/25 04:01:52;;;;;;;9.10;8.20;;;;;;;-1.98;89.12;96932.23;106262;1323;22478;-60
2021/12/25 04:04:33;;;;;;;12.30;11.10;;;;;;;-2.01;89.26;96935.84;106084;1326;22293;-61
2021/12/25 04:10:01;;;;;;;8.90;8.00;;;;;;;-2.16;88.79;96950.58;106082;1323;22528;-61
2021/12/25 04:12:30;;;;;;;9.20;8.30;;;;;;;-2.20;88.54;96955.54;106212;1324;22331;-61
2021/12/25 04:14:58;;;;;;;8.60;7.70;;;;;;;-2.24;88.43;96955.05;106064;1325;22419;-61
2021/12/25 04:17:28;;;;;;;9.50;8.60;;;;;;;-2.28;87.97;96963.86;106187;1324;22423;-60
2021/12/25 04:19:56;;;;;;;8.70;7.90;;;;;;;-2.34;88.15;96977.12;106103;1324;23188;-61
2021/12/25 04:22:32;;;;;;;9.60;8.60;;;;;;;-2.39;88.08;96979.26;106328;1323;22318;-60
2021/12/25 04:25:02;;;;;;;8.50;7.70;;;;;;;-2.43;87.75;96987.14;106241;1323;22391;-61
2021/12/25 04:27:32;;;;;;;10.40;9.40;;;;;;;-2.46;87.93;96995.90;106280;1324;23256;-61
2021/12/25 04:30:05;;;;;;;11.20;10.10;;;;;;;-2.56;87.73;96995.42;106264;1323;23470;-61
2021/12/25 04:49:43;;;;;;;10.00;9.00;;;;;;;-2.89;87.89;97022.15;106299;1323;22647;-61
2021/12/25 05:06:12;;;;;;;9.20;8.20;;;;;;;-3.13;87.90;97061.43;106323;1323;22526;-61
2021/12/25 05:08:43;;;;;;;10.00;9.00;;;;;;;-3.13;87.74;97058.84;106365;1323;22545;-60
2021/12/25 05:11:11;;;;;;;9.90;8.90;;;;;;;-3.14;87.71;97055.83;106330;1323;22508;-60
2021/12/25 05:13:40;;;;;;;10.10;9.10;;;;;;;-3.17;87.72;97056.08;106298;1323;22309;-61
2021/12/25 05:16:08;;;;;;;9.50;8.60;;;;;;;-3.18;87.85;97057.10;106302;1323;22639;-61
2021/12/25 05:18:36;;;;;;;8.70;7.80;;;;;;;-3.16;87.79;97055.30;106251;1323;23328;-60
2021/12/25 05:21:06;;;;;;;10.80;9.70;;;;;;;-3.18;87.57;97060.59;106348;1323;22476;-60
2021/12/25 05:23:36;;;;;;;12.80;11.60;;;;;;;-3.20;87.70;97068.25;106344;1322;22606;-60
2021/12/25 05:26:05;;;;;;;12.20;11.00;;;;;;;-3.18;87.76;97077.23;106262;1323;22651;-60
2021/12/25 05:28:43;;;;;;;10.20;9.20;;;;;;;-3.17;87.63;97079.80;106317;1323;22265;-60
2021/12/25 05:31:15;;;;;;;11.30;10.10;;;;;;;-3.13;87.57;97083.89;106157;1323;138694;-60
2021/12/25 05:34:07;;;;;;;11.10;9.70;;;;;;;-3.12;87.24;97092.12;106250;1323;22527;-61
2021/12/25 05:37:05;;;;;;;11.00;8.60;;;;;;;-3.29;86.43;97095.45;106199;1323;23139;-60
2021/12/25 05:39:52;;;;;;;9.20;7.80;;;;;;;-3.43;86.82;97093.91;106342;1323;23005;-60
2021/12/25 05:42:26;;;;;;;11.20;9.10;;;;;;;-3.52;86.47;97097.34;106292;1323;22394;-60
2021/12/25 05:44:54;;;;;;;8.20;7.30;;;;;;;-3.62;86.20;97098.95;106240;1324;22404;-59
2021/12/25 05:47:27;;;;;;;10.30;9.10;;;;;;;-3.67;86.39;97106.25;106365;1323;22406;-60
2021/12/25 05:50:14;;;;;;;8.30;7.20;;;;;;;-3.74;86.36;97108.87;106329;1323;22302;-60
2021/12/25 05:52:57;;;;;;;9.10;7.70;;;;;;;-3.80;86.34;97107.63;106368;1323;22467;-60
2021/12/25 05:55:45;;;;;;;10.60;7.80;;;;;;;-3.80;85.98;97118.63;106346;1322;23302;-60
2021/12/25 05:58:32;;;;;;;10.40;9.30;;;;;;;-3.88;85.95;97115.27;106350;1323;23194;-61
2021/12/25 06:01:19;;;;;;;11.70;9.90;;;;;;;-3.93;86.34;97115.31;106167;1323;139279;-60
2021/12/25 06:03:48;;;;;;;9.60;8.10;;;;;;;-3.94;86.32;97126.30;106256;1322;22285;-59
2021/12/25 06:06:16;;;;;;;12.30;10.10;;;;;;;-3.95;86.31;97129.79;106118;1323;22462;-59
2021/12/25 06:08:44;;;;;;;12.00;10.00;;;;;;;-3.94;86.46;97136.09;106354;1323;22520;-60
2021/12/25 06:11:12;;;;;;;10.40;9.30;;;;;;;-3.95;86.36;97139.06;106373;1323;22379;-60
2021/12/25 06:13:48;;;;;;;20.00;18.00;;;;;;;-3.97;86.61;97137.80;106357;1320;23698;-60
2021/12/25 06:16:16;;;;;;;12.50;11.20;;;;;;;-3.93;86.97;97135.59;106225;1321;22680;-60
2021/12/25 06:19:06;;;;;;;12.00;10.80;;;;;;;-3.81;87.00;97137.09;106006;1319;22502;-60
2021/12/25 06:21:45;;;;;;;9.70;8.60;;;;;;;-3.71;86.83;97148.23;106276;1318;23167;-61
2021/12/25 06:24:40;;;;;;;12.30;8.90;;;;;;;-3.67;86.55;97159.67;106277;1321;23277;-60
2021/12/25 06:27:20;;;;;;;12.60;10.50;;;;;;;-3.73;86.30;97162.52;106264;1323;22553;-60
2021/12/25 06:30:13;;;;;;;13.40;10.10;;;;;;;-3.85;86.29;97160.14;105846;1323;138647;-60
2021/12/25 06:32:59;;;;;;;10.90;8.70;;;;;;;-3.96;86.06;97165.77;106309;1316;22540;-60
2021/12/25 06:35:54;;;;;;;9.50;7.80;;;;;;;-4.11;85.36;97174.64;106293;1320;23147;-60
2021/12/25 06:38:44;;;;;;;10.70;9.40;;;;;;;-4.23;85.50;97178.90;106228;1323;22518;-60
2021/12/25 06:41:21;;;;;;;9.40;8.40;;;;;;;-4.36;85.11;97184.44;106305;1323;22273;-60
2021/12/25 06:43:49;;;;;;;8.40;7.50;;;;;;;-4.48;84.25;97188.92;106115;1324;22510;-60
2021/12/25 06:46:32;;;;;;;8.20;6.80;;;;;;;-4.58;84.29;97196.39;106229;1324;22422;-60
2021/12/25 06:49:00;;;;;;;12.00;8.70;;;;;;;-4.59;84.43;97200.08;106269;1323;23242;-60
2021/12/25 06:51:48;;;;;;;13.50;10.40;;;;;;;-4.59;84.87;97202.63;106293;1323;22468;-60
2021/12/25 06:54:31;;;;;;;;;;;;;;;-4.58;84.99;97197.23;106214;1323;23371;-60
2021/12/25 06:57:19;;;;;;;14.00;10.10;;;;;;;-4.62;85.07;97205.89;106250;1317;23152;-60
2021/12/25 06:59:48;;;;;;;12.80;10.70;;;;;;;-4.68;85.02;97212.27;106258;1323;22467;-60
2021/12/25 07:02:17;;;;;;;12.80;11.00;;;;;;;-4.68;84.99;97210.80;106218;1323;22345;-60
2021/12/25 07:05:04;;;;;;;12.10;10.80;;;;;;;-4.69;84.64;97211.27;106320;1323;22469;-61
2021/12/25 07:08:00;;;;;;;14.10;12.40;;;;;;;-4.71;84.89;97213.39;106044;1323;22505;-60
2021/12/25 07:10:42;;;;;;;10.10;9.10;;;;;;;-4.78;83.96;97211.56;106230;1323;22401;-61
2021/12/25 07:13:33;;;;;;;10.00;7.80;;;;;;;-4.82;83.70;97217.05;106042;1321;23228;-59
2021/12/25 07:16:21;;;;;;;11.80;9.90;;;;;;;-4.81;84.04;97223.27;106296;1323;22425;-59
2021/12/25 07:19:10;;;;;;;12.90;10.40;;;;;;;-4.82;83.86;97235.25;106280;1323;22294;-60
2021/12/25 07:21:56;;;;;;;13.20;11.40;;;;;;;-4.87;84.38;97231.52;106288;1322;22272;-60
2021/12/25 07:24:54;;;;;;;15.10;12.00;;;;;;;-4.86;84.94;97237.59;106223;1324;22280;-59
2021/12/25 07:27:40;;;;;;;11.50;9.80;;;;;;;-4.79;84.96;97245.48;106256;1323;22407;-59
2021/12/25 07:30:09;;;;;;;13.40;11.30;;;;;;;-4.73;84.97;97233.23;106283;1323;22973;-60
2021/12/25 07:32:37;;;;;;;15.00;12.00;;;;;;;-4.66;84.73;97235.09;106275;1323;22925;-60
2021/12/25 07:35:05;;;;;;;14.20;12.30;;;;;;;-4.65;84.56;97233.45;106266;1323;22620;-59
2021/12/25 07:37:34;;;;;;;13.70;11.90;;;;;;;-4.67;84.44;97234.86;106288;1323;22473;-59
2021/12/25 07:40:04;;;;;;;14.50;12.80;;;;;;;-4.66;84.75;97234.20;106269;1323;23395;-60
2021/12/25 07:42:32;;;;;;;14.90;12.60;;;;;;;-4.61;85.00;97236.87;106295;1323;22497;-59
2021/12/25 07:45:23;;;;;;;13.00;11.30;;;;;;;-4.53;84.53;97240.73;106059;1323;23146;-60
2021/12/25 07:48:03;;;;;;;13.90;12.50;;;;;;;-4.56;83.84;97247.87;106265;1323;22688;-61
2021/12/25 07:50:35;;;;;;;15.30;13.80;;;;;;;-4.68;82.80;97253.80;106307;1323;22519;-61
2021/12/25 07:53:03;;;;;;;18.10;16.20;;;;;;;-4.69;83.77;97255.42;106241;1323;23606;-61
2021/12/25 07:55:32;;;;;;;16.50;14.80;;;;;;;-4.67;84.12;97261.15;106260;1324;22571;-61
2021/12/25 07:58:05;;;;;;;16.40;14.60;;;;;;;-4.65;84.18;97264.52;106268;1323;22285;-62
2021/12/25 08:00:33;;;;;;;16.40;14.60;;;;;;;-4.59;84.31;97273.70;106283;1323;22938;-61
2021/12/25 08:03:02;;;;;;;18.30;16.30;;;;;;;-4.52;84.34;97273.83;106232;1323;22507;-61
2021/12/25 08:05:31;;;;;;;17.60;15.60;;;;;;;-4.50;83.84;97273.13;106268;1323;22464;-61
2021/12/25 08:07:59;;;;;;;18.60;16.60;;;;;;;-4.48;84.09;97260.64;106266;1323;22610;-61
2021/12/25 08:10:28;;;;;;;20.20;18.10;;;;;;;-4.49;84.03;97265.63;106311;1323;23280;-60
2021/12/25 08:12:58;;;;;;;22.70;20.30;;;;;;;-4.50;84.15;97260.81;106255;1323;23469;-61
2021/12/25 08:15:28;;;;;;;19.30;16.40;;;;;;;-4.48;84.34;97265.33;106287;1323;22428;-61
2021/12/25 08:18:00;;;;;;;17.00;15.20;;;;;;;-4.45;84.38;97269.67;106248;1323;22379;-60
2021/12/25 08:20:34;;;;;;;13.90;12.50;;;;;;;-4.37;84.28;97276.45;106288;1323;22510;-61
2021/12/25 08:23:21;;;;;;;20.80;17.30;;;;;;;-4.32;84.14;97282.48;106287;1323;23019;-61
2021/12/25 08:26:09;;;;;;;20.00;17.70;;;;;;;-4.27;84.59;97288.05;106271;1323;22593;-60
2021/12/25 08:28:55;;;;;;;25.00;22.10;;;;;;;-4.15;84.84;97290.70;106300;1323;22995;-61
2021/12/25 08:31:41;;;;;;;18.40;16.30;;;;;;;-4.03;84.87;97291.57;106263;1323;23157;-60
2021/12/25 08:34:10;;;;;;;16.00;14.30;;;;;;;-3.96;84.66;97296.09;106227;1323;22506;-60
2021/12/25 08:36:57;;;;;;;11.60;10.20;;;;;;;-3.96;83.74;97299.05;106270;1323;22279;-60
2021/12/25 08:39:25;;;;;;;10.60;9.60;;;;;;;-4.08;82.96;97303.07;106289;1323;22306;-61
2021/12/25 08:42:02;;;;;;;11.40;10.30;;;;;;;-4.21;82.64;97304.30;106206;1324;22440;-59
2021/12/25 08:44:52;;;;;;;13.30;10.30;;;;;;;-4.25;82.89;97311.78;106290;1323;22468;-60
2021/12/25 08:47:22;;;;;;;15.70;13.50;;;;;;;-4.34;82.89;97311.84;106240;1323;23125;-58
2021/12/25 08:49:51;;;;;;;18.90;17.00;;;;;;;-4.35;83.49;97315.54;106223;1323;22429;-59
2021/12/25 08:52:22;;;;;;;15.30;13.70;;;;;;;-4.27;83.84;97316.14;106303;1323;23062;-59
2021/12/25 08:54:51;;;;;;;15.80;14.20;;;;;;;-4.25;83.37;97320.25;106255;1323;22381;-60
2021/12/25 08:57:25;;;;;;;14.10;12.40;;;;;;;-4.22;83.19;97323.38;106302;1323;23228;-60
2021/12/25 08:59:56;;;;;;;17.10;13.70;;;;;;;-4.22;82.96;97322.35;106248;1323;22958;-59
2021/12/25 09:02:27;;;;;;;18.20;16.30;;;;;;;-4.15;83.60;97321.19;106228;1323;22282;-59
2021/12/25 09:04:55;;;;;;;20.50;18.10;;;;;;;-4.04;83.81;97323.84;106256;1323;22303;-59
2021/12/25 09:07:24;;;;;;;17.20;14.40;;;;;;;-3.95;83.79;97322.55;106298;1323;23118;-59
2021/12/25 09:09:52;;;;;;;15.80;14.10;;;;;;;-3.86;83.56;97321.85;106179;1324;22532;-59
2021/12/25 09:12:22;;;;;;;16.40;14.70;;;;;;;-3.76;83.78;97314.44;106272;1323;22388;-62
2021/12/25 09:14:51;;;;;;;16.00;14.30;;;;;;;-3.64;83.79;97315.27;106254;1324;22505;-59
2021/12/25 09:17:19;;;;;;;10.30;8.90;;;;;;;-3.58;83.44;97310.08;106223;1323;22501;-60
2021/12/25 09:19:47;;;;;;;13.30;10.90;;;;;;;-3.65;82.83;97310.17;106269;1323;23578;-60
2021/12/25 09:22:15;;;;;;;15.70;14.10;;;;;;;-3.72;83.04;97319.25;106236;1324;22604;-59
2021/12/25 09:24:43;;;;;;;12.20;10.90;;;;;;;-3.68;83.31;97332.23;106246;1324;22602;-59
2021/12/25 09:27:11;;;;;;;18.90;14.10;;;;;;;-3.58;83.45;97332.81;106291;1323;22573;-60
2021/12/25 09:29:39;;;;;;;42.10;30.30;;;;;;;-3.50;83.36;97329.79;106272;1323;22323;-61
2021/12/25 09:32:07;;;;;;;30.80;23.80;;;;;;;-3.48;83.36;97331.95;106270;1323;22483;-59
2021/12/25 09:34:35;;;;;;;20.70;17.50;;;;;;;-3.44;82.88;97345.39;106142;1323;139041;-59
2021/12/25 09:37:03;;;;;;;14.30;12.80;;;;;;;-3.47;82.92;97344.34;106251;1324;22449;-60
2021/12/25 09:39:32;;;;;;;14.30;12.50;;;;;;;-3.45;83.13;97335.55;106310;1323;22702;-60
2021/12/25 09:42:00;;;;;;;13.20;11.20;;;;;;;-3.36;83.25;97334.52;106272;1323;22395;-60
2021/12/25 09:44:28;;;;;;;12.20;9.80;;;;;;;-3.35;82.77;97335.15;106276;1323;22457;-60
2021/12/25 09:46:56;;;;;;;14.40;11.30;;;;;;;-3.42;82.45;97332.88;106292;1323;22574;-60
2021/12/25 09:49:25;;;;;;;16.80;13.30;;;;;;;-3.48;82.54;97330.15;105907;1323;389428;-61
2021/12/25 09:51:53;;;;;;;16.30;13.00;;;;;;;-3.45;82.92;97328.34;106280;1323;22589;-59
2021/12/25 09:54:21;;;;;;;14.00;12.50;;;;;;;-3.35;83.03;97328.75;106281;1323;22485;-59
2021/12/25 09:56:51;;;;;;;14.00;12.50;;;;;;;-3.27;83.06;97322.80;106287;1323;22438;-59
2021/12/25 09:59:19;;;;;;;14.00;12.40;;;;;;;-3.18;82.65;97319.80;106262;1323;22427;-61
2021/12/25 10:01:52;;;;;;;14.40;12.80;;;;;;;-3.26;81.60;97313.29;106271;1323;22557;-61
2021/12/25 10:04:37;;;;;;;12.70;10.60;;;;;;;-3.43;81.81;97311.06;106287;1323;22272;-61
2021/12/25 10:07:27;;;;;;;14.80;12.90;;;;;;;-3.50;81.96;97304.71;106263;1323;23105;-61
2021/12/25 10:10:04;;;;;;;20.20;15.90;;;;;;;-3.54;81.63;97301.27;106255;1323;22535;-61
2021/12/25 10:12:51;;;;;;;15.00;13.20;;;;;;;-3.64;81.73;97299.42;106264;1323;22628;-62
2021/12/25 10:15:23;;;;;;;14.30;11.80;;;;;;;-3.69;81.57;97296.77;106182;1323;138049;-63
2021/12/25 10:17:58;;;;;;;15.40;13.20;;;;;;;-3.69;81.61;97291.74;106284;1323;22423;-62
2021/12/25 10:20:28;;;;;;;;;;;;;;;-3.73;81.66;97285.88;106310;1323;23251;-63
2021/12/25 10:23:08;;;;;;;16.40;14.60;;;;;;;-3.68;81.51;97294.61;106318;1323;22259;-60
2021/12/25 10:25:47;;;;;;;14.30;12.80;;;;;;;-3.63;81.58;97296.41;106304;1323;22318;-60
2021/12/25 10:28:27;;;;;;;12.30;11.00;;;;;;;-3.62;81.15;97297.90;106291;1323;22890;-60
2021/12/25 10:31:01;;;;;;;14.20;11.80;;;;;;;-3.63;80.84;97294.02;106261;1323;23159;-62
2021/12/25 10:33:30;;;;;;;24.80;20.50;;;;;;;-3.70;81.03;97294.00;106275;1324;22481;-61
2021/12/25 10:36:29;;;;;;;23.10;19.10;;;;;;;-3.76;81.16;97296.54;106299;1322;22618;-61
2021/12/25 10:39:24;;;;;;;16.00;13.40;;;;;;;-3.67;81.32;97297.68;106285;1323;22578;-60
2021/12/25 10:42:11;;;;;;;14.70;13.20;;;;;;;-3.66;80.76;97301.08;106268;1323;22318;-60
2021/12/25 10:44:44;;;;;;;22.80;19.80;;;;;;;-3.62;81.08;97301.15;106255;1323;22714;-59
2021/12/25 10:47:20;;;;;;;19.30;14.90;;;;;;;-3.54;81.06;97301.96;106272;1323;22529;-60
2021/12/25 10:50:09;;;;;;;14.80;12.90;;;;;;;-3.49;80.80;97302.42;106263;1323;22524;-60
2021/12/25 10:52:43;;;;;;;14.10;12.40;;;;;;;-3.44;80.59;97300.86;106274;1317;22467;-62
2021/12/25 10:55:21;;;;;;;14.00;11.40;;;;;;;-3.46;79.96;97304.09;106277;1323;22497;-61
2021/12/25 10:57:50;;;;;;;13.30;11.90;;;;;;;-3.54;79.33;97309.13;106277;1323;22494;-63
2021/12/25 11:00:21;;;;;;;14.20;12.70;;;;;;;-3.51;80.06;97314.17;106271;1323;22757;-62
2021/12/25 11:02:57;;;;;;;21.40;19.20;;;;;;;-3.53;79.59;97308.27;106296;1324;22519;-62
2021/12/25 11:05:31;;;;;;;17.70;15.90;;;;;;;-3.51;80.53;97306.98;106294;1323;22420;-62
2021/12/25 11:08:13;;;;;;;18.70;16.80;;;;;;;-3.43;81.02;97303.73;106268;1323;22505;-62
2021/12/25 11:10:53;;;;;;;19.60;17.60;;;;;;;-3.35;80.93;97304.42;106163;1323;137993;-61
2021/12/25 11:13:35;;;;;;;18.80;16.80;;;;;;;-3.39;80.32;97305.73;106245;1323;22371;-62
2021/12/25 11:16:16;;;;;;;19.80;17.80;;;;;;;-3.50;79.03;97301.52;106252;1323;22477;-60
2021/12/25 11:19:01;;;;;;;18.20;16.20;;;;;;;-3.48;80.03;97304.20;106300;1323;23714;-61
2021/12/25 11:21:33;;;;;;;15.70;14.10;;;;;;;-3.42;79.77;97310.94;106277;1323;22593;-61
2021/12/25 11:24:17;;;;;;;18.90;16.50;;;;;;;-3.54;79.27;97308.86;106275;1323;22505;-60
2021/12/25 11:26:55;;;;;;;18.80;16.80;;;;;;;-3.69;78.80;97304.27;106277;1323;22559;-60
2021/12/25 11:29:30;;;;;;;21.00;18.70;;;;;;;-3.67;79.98;97298.37;106291;1317;22382;-61
2021/12/25 11:32:00;;;;;;;20.80;18.70;;;;;;;-3.65;79.50;97298.27;106326;1323;23775;-62
2021/12/25 11:34:28;;;;;;;20.30;16.30;;;;;;;-3.72;78.95;97288.02;106268;1323;22502;-61
2021/12/25 11:36:58;;;;;;;18.70;16.70;;;;;;;-3.74;79.54;97297.52;106270;1324;23147;-60
2021/12/25 11:39:28;;;;;;;18.40;16.30;;;;;;;-3.76;79.89;97291.80;106270;1323;22445;-61
2021/12/25 11:42:03;;;;;;;23.50;19.20;;;;;;;-3.70;79.89;97288.44;106176;1324;138492;-61
2021/12/25 11:44:45;;;;;;;27.20;22.20;;;;;;;-3.70;78.49;97291.39;106272;1323;22640;-60
2021/12/25 11:47:28;;;;;;;18.40;15.80;;;;;;;-3.76;78.90;97295.59;106263;1323;23568;-60
2021/12/25 11:50:02;;;;;;;22.90;18.50;;;;;;;-3.84;79.38;97292.98;106256;1323;22573;-59
2021/12/25 11:52:37;;;;;;;18.00;16.10;;;;;;;-3.75;80.63;97295.39;106296;1323;22297;-59
2021/12/25 11:58:37;;;;;;;17.60;15.30;;;;;;;-3.27;80.18;97306.05;106087;1323;22529;-60
2021/12/25 12:01:38;;;;;;;21.50;19.30;;;;;;;-3.09;79.92;97311.39;106271;1323;22383;-61
2021/12/25 12:04:11;;;;;;;23.60;20.30;;;;;;;-3.16;78.78;97321.80;105446;1330;22445;-61
2021/12/25 12:06:45;;;;;;;24.60;21.30;;;;;;;-3.29;78.61;97329.50;105499;1330;22448;-62
2021/12/25 12:09:21;;;;;;;25.50;22.80;;;;;;;-3.52;78.43;97331.33;105457;1331;22300;-61
2021/12/25 12:12:09;;;;;;;25.30;21.70;;;;;;;-3.56;79.14;97327.98;105363;1330;23176;-61
2021/12/25 12:15:19;;;;;;;28.30;25.30;;;;;;;-3.67;79.10;97324.49;105073;1331;22422;-61
2021/12/25 12:18:28;;;;;;;31.40;28.00;;;;;;;-3.72;78.80;97319.65;105453;1330;22336;-61
2021/12/25 12:21:13;;;;;;;30.10;26.90;;;;;;;-3.78;79.15;97317.06;105497;1331;23735;-61
2021/12/25 12:24:21;;;;;;;32.60;24.50;;;;;;;-3.74;79.20;97322.55;105436;1331;22357;-62
2021/12/25 12:26:44;;;;;;;33.40;29.10;;;;;;;-3.71;78.89;97322.04;105479;1330;23119;-60
2021/12/25 12:29:14;;;;;;;43.80;39.30;;;;;;;-3.76;78.80;97324.40;105470;1331;22555;-61
2021/12/25 12:31:45;;;;;;;28.60;25.50;;;;;;;-3.73;79.03;97329.48;105479;1331;23222;-61
2021/12/25 12:34:33;;;;;;;29.30;23.20;;;;;;;-3.77;78.61;97327.81;105488;1330;22606;-62
2021/12/25 12:37:13;;;;;;;27.90;23.80;;;;;;;-3.87;78.83;97334.30;105463;1331;23324;-61
2021/12/25 12:39:58;;;;;;;29.50;25.00;;;;;;;-3.97;78.70;97333.79;105465;1330;22385;-62
2021/12/25 12:42:46;;;;;;;27.90;23.50;;;;;;;-4.08;78.26;97337.67;106219;1324;22436;-62
2021/12/25 12:45:26;;;;;;;27.40;24.00;;;;;;;-4.14;78.41;97339.56;106254;1323;22571;-64
2021/12/25 12:48:14;;;;;;;25.50;21.90;;;;;;;-4.21;78.31;97344.29;106247;1323;22517;-64
2021/12/25 12:50:53;;;;;;;26.20;23.20;;;;;;;-4.26;78.40;97344.98;106283;1322;22488;-62
2021/12/25 12:53:25;;;;;;;29.00;25.60;;;;;;;-4.24;78.78;97351.35;106273;1323;22487;-59
2021/12/25 12:56:02;;;;;;;26.40;23.30;;;;;;;-4.22;78.85;97356.07;106283;1321;23150;-61
2021/12/25 12:58:30;;;;;;;28.30;24.30;;;;;;;-4.24;78.40;97355.04;106258;1323;22511;-62
2021/12/25 13:01:01;;;;;;;31.70;25.90;;;;;;;-4.32;78.21;97357.86;106276;1322;23151;-62
2021/12/25 13:03:30;;;;;;;28.80;25.60;;;;;;;-4.31;78.50;97371.83;106256;1323;22492;-60
2021/12/25 13:06:10;;;;;;;32.30;28.90;;;;;;;-4.34;78.23;97368.81;106271;1322;22526;-61
2021/12/25 13:08:40;;;;;;;35.70;32.00;;;;;;;-4.33;78.48;97366.77;106270;1323;22417;-62